createdAt,value
2019-02-21T00:01:38.603Z,20.75
2019-02-21T00:04:08.295Z,21.60
2019-02-21T00:06:37.755Z,24.20
2019-02-21T00:09:08.707Z,19.62
2019-02-21T00:11:38.401Z,21.10
2019-02-21T00:14:08.179Z,26.85
2019-02-21T00:16:37.843Z,24.30
2019-02-21T00:19:07.612Z,22.52
2019-02-21T00:21:37.284Z,22.93
2019-02-21T00:24:06.899Z,17.73
2019-02-21T00:26:36.357Z,19.57
2019-02-21T00:29:05.795Z,15.23
2019-02-21T00:31:35.406Z,21.37
2019-02-21T00:34:05.022Z,20.50
2019-02-21T00:36:34.683Z,27.90
2019-02-21T00:39:05.776Z,21.60
2019-02-21T00:41:35.754Z,19.73
2019-02-21T00:44:05.597Z,23.27
2019-02-21T00:46:36.297Z,19.02
2019-02-21T00:49:06.181Z,23.47
2019-02-21T00:51:36.032Z,20.00
2019-02-21T00:54:05.700Z,20.77
2019-02-21T00:56:35.291Z,22.22
2019-02-21T00:59:06.035Z,21.27
2019-02-21T01:01:35.463Z,19.67
2019-02-21T01:04:05.804Z,21.42
2019-02-21T01:06:35.668Z,21.90
2019-02-21T01:09:06.673Z,19.37
2019-02-21T01:11:36.112Z,24.27
2019-02-21T01:14:05.612Z,19.95
2019-02-21T01:16:35.276Z,24.67
2019-02-21T01:19:04.722Z,27.60
2019-02-21T01:21:34.177Z,20.27
2019-02-21T01:24:05.022Z,26.43
2019-02-21T01:26:34.659Z,25.55
2019-02-21T01:29:04.374Z,27.73
2019-02-21T01:31:33.894Z,24.00
2019-02-21T01:34:03.664Z,20.88
2019-02-21T01:36:33.112Z,21.85
2019-02-21T01:39:02.669Z,21.93
2019-02-21T01:41:32.284Z,23.73
2019-02-21T01:44:01.846Z,21.82
2019-02-21T01:46:31.258Z,20.40
2019-02-21T01:49:00.928Z,22.55
2019-02-21T01:51:30.398Z,22.10
2019-02-21T01:53:59.832Z,19.48
2019-02-21T01:56:29.320Z,20.52
2019-02-21T01:58:58.842Z,24.27
2019-02-21T02:01:28.304Z,19.77
2019-02-21T02:03:57.772Z,25.70
2019-02-21T02:06:27.773Z,19.50
2019-02-21T02:08:57.202Z,23.75
2019-02-21T02:11:26.850Z,26.27
2019-02-21T02:13:56.312Z,24.82
2019-02-21T02:16:25.772Z,22.52
2019-02-21T02:18:55.242Z,24.70
2019-02-21T02:21:24.842Z,24.75
2019-02-21T02:23:54.296Z,25.93
2019-02-21T02:26:24.030Z,23.47
2019-02-21T02:28:53.567Z,27.75
2019-02-21T02:31:23.836Z,26.73
2019-02-21T02:33:53.408Z,27.70
2019-02-21T02:36:23.080Z,25.97
2019-02-21T02:38:52.482Z,24.67
2019-02-21T02:41:21.923Z,27.82
2019-02-21T02:43:51.729Z,22.85
2019-02-21T02:46:21.230Z,27.25
2019-02-21T02:48:50.598Z,24.98
2019-02-21T02:51:20.309Z,24.10
2019-02-21T02:53:49.791Z,26.42
2019-02-21T02:56:19.216Z,25.50
2019-02-21T02:58:48.995Z,29.25
2019-02-21T03:01:18.469Z,26.82
2019-02-21T03:03:48.469Z,30.23
2019-02-21T03:06:17.914Z,28.07
2019-02-21T03:08:47.545Z,27.32
2019-02-21T03:11:17.003Z,26.07
2019-02-21T03:13:46.440Z,27.42
2019-02-21T03:16:15.863Z,28.05
2019-02-21T03:18:45.469Z,28.95
2019-02-21T03:21:15.007Z,28.52
2019-02-21T03:23:44.437Z,26.23
2019-02-21T03:26:13.907Z,29.55
2019-02-21T03:28:43.450Z,32.35
2019-02-21T03:31:12.898Z,28.87
2019-02-21T03:33:42.358Z,30.65
2019-02-21T03:36:11.985Z,26.40
2019-02-21T03:38:41.387Z,29.87
2019-02-21T03:41:11.213Z,29.77
2019-02-21T03:43:41.073Z,33.33
2019-02-21T03:46:10.473Z,25.62
2019-02-21T03:48:40.311Z,26.80
2019-02-21T03:51:09.719Z,29.40
2019-02-21T03:53:39.087Z,36.42
2019-02-21T03:56:08.944Z,31.25
2019-02-21T03:58:38.406Z,35.28
2019-02-21T04:01:07.833Z,34.20
2019-02-21T04:03:37.380Z,34.67
2019-02-21T04:06:06.827Z,35.55
2019-02-21T04:08:36.248Z,34.95
2019-02-21T04:11:06.063Z,33.48
2019-02-21T04:13:35.548Z,34.13
2019-02-21T04:16:05.026Z,34.77
2019-02-21T04:18:34.736Z,36.00
2019-02-21T04:21:04.287Z,39.25
2019-02-21T04:23:33.882Z,36.98
2019-02-21T04:26:03.373Z,40.33
2019-02-21T04:28:32.875Z,38.95
2019-02-21T04:31:02.296Z,42.35
2019-02-21T04:33:34.292Z,42.65
2019-02-21T04:36:03.408Z,43.25
2019-02-21T04:38:33.301Z,43.70
2019-02-21T04:41:02.736Z,50.98
2019-02-21T04:43:32.056Z,43.75
2019-02-21T04:46:01.528Z,51.55
2019-02-21T04:48:31.205Z,47.10
2019-02-21T04:51:00.633Z,49.77
2019-02-21T04:53:30.075Z,52.17
2019-02-21T04:55:59.674Z,47.73
2019-02-21T04:58:29.093Z,50.80
2019-02-21T05:00:58.546Z,50.60
2019-02-21T05:03:27.960Z,54.30
2019-02-21T05:05:57.939Z,59.10
2019-02-21T05:08:27.428Z,55.83
2019-02-21T05:10:56.994Z,60.03
2019-02-21T05:13:26.626Z,59.70
2019-02-21T05:15:56.033Z,61.88
2019-02-21T05:18:25.842Z,61.58
2019-02-21T05:20:55.243Z,63.85
2019-02-21T05:23:24.702Z,67.87
2019-02-21T05:25:54.912Z,71.85
2019-02-21T05:28:31.904Z,64.03
2019-02-21T05:31:16.806Z,63.37
2019-02-21T05:34:05.192Z,66.93
2019-02-21T05:37:02.736Z,66.47
2019-02-21T05:39:50.308Z,75.72
2019-02-21T05:42:47.789Z,72.32
2019-02-21T05:45:42.558Z,69.77
2019-02-21T05:48:27.412Z,74.67
2019-02-21T05:51:08.345Z,74.25
2019-02-21T05:53:47.044Z,70.72
2019-02-21T05:56:41.224Z,72.58
2019-02-21T05:59:42.129Z,67.05
2019-02-21T06:02:18.075Z,75.03
2019-02-21T06:05:12.153Z,76.40
2019-02-21T06:07:59.673Z,75.40
2019-02-21T06:10:51.073Z,85.90
2019-02-21T06:13:28.272Z,81.22
2019-02-21T06:16:16.801Z,80.62
2019-02-21T06:19:08.255Z,90.13
2019-02-21T06:22:09.975Z,86.82
2019-02-21T06:24:58.631Z,89.58
2019-02-21T06:27:41.821Z,92.65
2019-02-21T06:30:36.349Z,88.92
2019-02-21T06:33:05.763Z,97.22
2019-02-21T06:35:35.905Z,92.63
2019-02-21T06:38:05.619Z,94.72
2019-02-21T06:40:36.500Z,99.85
2019-02-21T06:43:06.359Z,100.72
2019-02-21T06:45:36.677Z,100.20
2019-02-21T06:48:06.321Z,101.05
2019-02-21T06:50:35.809Z,125.40
2019-02-21T06:53:05.317Z,133.75
2019-02-21T06:55:34.788Z,134.20
2019-02-21T06:58:04.374Z,136.90
2019-02-21T07:00:33.726Z,146.80
2019-02-21T07:03:03.307Z,147.72
2019-02-21T07:05:33.074Z,147.15
2019-02-21T07:08:02.511Z,144.90
2019-02-21T07:10:31.961Z,138.93
2019-02-21T07:13:01.724Z,122.95
2019-02-21T07:15:31.315Z,130.60
2019-02-21T07:18:01.183Z,123.90
2019-02-21T07:20:30.624Z,127.02
2019-02-21T07:23:00.390Z,139.15
2019-02-21T07:25:57.824Z,142.55
2019-02-21T07:28:27.901Z,146.90
2019-02-21T07:30:57.461Z,130.40
2019-02-21T07:33:28.741Z,125.35
2019-02-21T07:35:58.122Z,112.57
2019-02-21T07:38:27.674Z,103.20
2019-02-21T07:40:57.235Z,108.75
2019-02-21T07:43:26.749Z,105.58
2019-02-21T07:45:56.252Z,97.90
2019-02-21T07:48:25.981Z,102.15
2019-02-21T07:50:55.381Z,88.37
2019-02-21T07:53:24.848Z,88.90
2019-02-21T07:55:55.873Z,88.55
2019-02-21T07:58:26.212Z,82.10
2019-02-21T08:00:56.018Z,84.83
2019-02-21T08:03:31.950Z,86.90
2019-02-21T08:05:56.640Z,86.57
2019-02-21T08:08:26.271Z,89.55
2019-02-21T08:10:55.878Z,77.00
2019-02-21T08:13:25.289Z,77.55
2019-02-21T08:15:54.971Z,71.42
2019-02-21T08:18:24.441Z,73.70
2019-02-21T08:20:53.894Z,73.45
2019-02-21T08:23:23.723Z,68.67
2019-02-21T08:25:53.177Z,71.47
2019-02-21T08:28:22.596Z,62.50
2019-02-21T08:30:52.367Z,67.17
2019-02-21T08:33:58.534Z,71.35
2019-02-21T08:36:24.219Z,69.87
2019-02-21T08:38:53.650Z,70.25
2019-02-21T08:41:25.708Z,69.20
2019-02-21T08:43:57.227Z,66.07
2019-02-21T08:46:25.890Z,61.68
2019-02-21T08:48:55.431Z,63.90
2019-02-21T08:51:25.256Z,53.20
2019-02-21T08:53:54.752Z,54.93
2019-02-21T08:56:24.653Z,60.48
2019-02-21T08:58:53.982Z,57.90
2019-02-21T09:01:23.567Z,53.70
2019-02-21T09:03:53.248Z,58.75
2019-02-21T09:06:24.702Z,49.67
2019-02-21T09:08:53.951Z,49.55
2019-02-21T09:11:23.855Z,47.05
2019-02-21T09:13:55.693Z,52.50
2019-02-21T09:16:24.475Z,54.03
2019-02-21T09:18:54.671Z,52.95
2019-02-21T09:21:24.196Z,48.25
2019-02-21T09:23:56.476Z,52.45
2019-02-21T09:26:25.165Z,51.05
2019-02-21T09:28:54.763Z,47.90
2019-02-21T09:31:24.531Z,51.63
2019-02-21T09:33:54.102Z,51.30
2019-02-21T09:36:23.730Z,54.83
2019-02-21T09:38:53.198Z,56.75
2019-02-21T09:41:22.704Z,50.63
2019-02-21T09:43:53.350Z,55.33
2019-02-21T09:46:22.835Z,57.70
2019-02-21T09:48:52.435Z,61.58
2019-02-21T09:51:22.145Z,64.70
2019-02-21T09:53:51.604Z,70.35
2019-02-21T09:56:29.844Z,74.25
2019-02-21T09:58:52.357Z,75.85
2019-02-21T10:01:21.997Z,76.00
2019-02-21T10:03:51.506Z,79.20
2019-02-21T10:06:21.327Z,75.05
2019-02-21T10:08:50.892Z,66.90
2019-02-21T10:11:23.485Z,67.00
2019-02-21T10:13:53.063Z,64.22
2019-02-21T10:16:22.563Z,64.30
2019-02-21T10:18:52.482Z,63.90
2019-02-21T10:21:21.956Z,67.50
2019-02-21T10:23:51.999Z,71.17
2019-02-21T10:26:21.439Z,71.72
2019-02-21T10:28:52.087Z,74.77
2019-02-21T10:31:21.490Z,75.90
2019-02-21T10:33:50.951Z,79.95
2019-02-21T10:36:20.811Z,73.20
2019-02-21T10:38:50.292Z,83.07
2019-02-21T10:41:19.945Z,81.42
2019-02-21T10:43:49.574Z,88.35
2019-02-21T10:46:19.139Z,90.12
2019-02-21T10:48:48.757Z,87.88
2019-02-21T10:51:18.297Z,83.67
2019-02-21T10:53:48.367Z,82.83
2019-02-21T10:56:17.865Z,82.78
2019-02-21T10:58:47.928Z,87.40
2019-02-21T11:01:17.472Z,81.03
2019-02-21T11:03:47.057Z,82.92
2019-02-21T11:06:16.641Z,91.90
2019-02-21T11:08:46.049Z,86.10
2019-02-21T11:11:17.209Z,87.40
2019-02-21T11:13:46.893Z,80.97
2019-02-21T11:16:16.424Z,88.17
2019-02-21T11:18:45.884Z,78.45
2019-02-21T11:21:15.436Z,93.15
2019-02-21T11:23:44.959Z,89.45
2019-02-21T11:26:15.125Z,96.22
2019-02-21T11:28:47.175Z,98.55
2019-02-21T11:31:16.499Z,98.65
2019-02-21T11:33:45.867Z,89.33
2019-02-21T11:36:16.140Z,90.35
2019-02-21T11:38:45.850Z,96.00
2019-02-21T11:41:15.293Z,87.82
2019-02-21T11:43:44.689Z,93.10
2019-02-21T11:46:14.418Z,95.30
2019-02-21T11:48:43.891Z,85.55
2019-02-21T11:51:13.360Z,88.72
2019-02-21T11:53:43.073Z,100.25
2019-02-21T11:56:12.620Z,108.27
2019-02-21T11:58:42.118Z,88.95
2019-02-21T12:01:12.088Z,103.07
2019-02-21T12:03:41.614Z,93.00
2019-02-21T12:06:11.263Z,84.65
2019-02-21T12:08:40.816Z,87.70
2019-02-21T12:11:10.227Z,87.63
2019-02-21T12:13:39.880Z,90.17
2019-02-21T12:16:09.284Z,81.80
2019-02-21T12:18:38.987Z,94.17
2019-02-21T12:21:08.550Z,90.12
2019-02-21T12:23:38.037Z,84.52
2019-02-21T12:26:07.757Z,91.50
2019-02-21T12:28:37.393Z,81.78
2019-02-21T12:31:07.191Z,85.87
2019-02-21T12:33:36.781Z,98.10
2019-02-21T12:36:06.270Z,85.95
2019-02-21T12:38:36.049Z,84.05
2019-02-21T12:41:05.562Z,80.25
2019-02-21T12:43:35.560Z,86.37
2019-02-21T12:46:05.016Z,88.65
2019-02-21T12:48:34.789Z,97.50
2019-02-21T12:51:04.241Z,98.40
2019-02-21T12:53:33.723Z,96.87
2019-02-21T12:56:03.655Z,93.15
2019-02-21T12:58:33.043Z,100.22
2019-02-21T13:01:02.716Z,98.62
2019-02-21T13:03:32.382Z,106.97
2019-02-21T13:06:02.126Z,100.25
2019-02-21T13:08:31.597Z,98.50
2019-02-21T13:11:01.070Z,92.10
2019-02-21T13:13:30.748Z,96.35
2019-02-21T13:16:00.317Z,85.47
2019-02-21T13:18:31.492Z,76.07
2019-02-21T13:21:01.053Z,70.35
2019-02-21T13:23:30.833Z,63.87
2019-02-21T13:26:00.469Z,72.03
2019-02-21T13:28:30.109Z,65.45
2019-02-21T13:30:59.548Z,60.92
2019-02-21T13:33:29.062Z,57.55
2019-02-21T13:35:58.975Z,56.60
2019-02-21T13:38:28.557Z,41.58
2019-02-21T13:40:58.194Z,43.05
2019-02-21T13:43:27.674Z,37.33
2019-02-21T13:45:57.125Z,36.35
2019-02-21T13:48:27.027Z,40.23
2019-02-21T13:50:56.550Z,32.63
2019-02-21T13:53:26.404Z,37.70
2019-02-21T13:55:55.921Z,34.05
2019-02-21T13:58:25.661Z,33.85
2019-02-21T14:00:55.132Z,33.30
2019-02-21T14:03:24.679Z,30.48
2019-02-21T14:06:03.279Z,27.65
2019-02-21T14:08:25.571Z,33.38
2019-02-21T14:10:55.124Z,34.10
2019-02-21T14:13:24.984Z,35.40
2019-02-21T14:15:54.490Z,33.13
2019-02-21T14:18:24.575Z,31.20
2019-02-21T14:20:54.447Z,31.52
2019-02-21T14:23:23.956Z,31.05
2019-02-21T14:25:53.485Z,32.10
2019-02-21T14:28:23.241Z,32.88
2019-02-21T14:30:52.744Z,33.33
2019-02-21T14:33:22.346Z,34.18
2019-02-21T14:35:51.986Z,32.20
2019-02-21T14:38:28.045Z,29.33
2019-02-21T14:40:52.596Z,33.28
2019-02-21T14:43:22.398Z,28.02
2019-02-21T14:45:51.932Z,26.95
2019-02-21T14:48:21.620Z,28.62
2019-02-21T14:50:51.264Z,25.52
2019-02-21T14:53:20.912Z,26.77
2019-02-21T14:55:50.446Z,26.42
2019-02-21T14:58:20.048Z,29.18
2019-02-21T15:00:49.908Z,27.25
2019-02-21T15:03:22.293Z,28.25
2019-02-21T15:05:50.554Z,27.20
2019-02-21T15:08:23.520Z,24.20
2019-02-21T15:10:53.136Z,23.27
2019-02-21T15:13:25.416Z,21.52
2019-02-21T15:15:53.962Z,23.12
2019-02-21T15:18:23.444Z,23.38
2019-02-21T15:20:53.237Z,23.57
2019-02-21T15:23:22.689Z,24.18
2019-02-21T15:25:52.204Z,25.17
2019-02-21T15:28:22.009Z,22.90
2019-02-21T15:30:51.464Z,21.10
2019-02-21T15:33:21.497Z,25.02
2019-02-21T15:35:50.944Z,24.43
2019-02-21T15:38:20.447Z,27.87
2019-02-21T15:40:50.194Z,29.42
2019-02-21T15:43:19.667Z,26.57
2019-02-21T15:45:49.163Z,25.08
2019-02-21T15:48:18.925Z,27.22
2019-02-21T15:50:48.697Z,28.55
2019-02-21T15:53:18.512Z,26.75
2019-02-21T15:55:48.293Z,31.00
2019-02-21T15:58:17.978Z,25.53
2019-02-21T16:00:48.144Z,30.55
2019-02-21T16:03:18.341Z,29.63
2019-02-21T16:05:48.253Z,33.15
2019-02-21T16:08:17.740Z,30.15
2019-02-21T16:10:47.613Z,27.20
2019-02-21T16:13:17.366Z,27.63
2019-02-21T16:15:47.082Z,29.60
2019-02-21T16:18:16.560Z,29.65
2019-02-21T16:20:46.005Z,28.30
2019-02-21T16:23:15.556Z,34.75
2019-02-21T16:25:45.045Z,31.52
2019-02-21T16:28:14.541Z,32.50
2019-02-21T16:30:44.296Z,29.52
2019-02-21T16:33:13.692Z,30.00
2019-02-21T16:35:43.195Z,30.45
2019-02-21T16:38:12.946Z,31.90
2019-02-21T16:40:42.404Z,34.83
2019-02-21T16:43:16.473Z,35.32
2019-02-21T16:45:48.406Z,35.83
2019-02-21T16:48:17.700Z,34.70
2019-02-21T16:50:48.541Z,35.23
2019-02-21T16:53:18.143Z,38.13
2019-02-21T16:55:47.702Z,34.95
2019-02-21T16:58:17.776Z,38.00
2019-02-21T17:00:52.756Z,44.13
2019-02-21T17:03:18.807Z,47.80
2019-02-21T17:05:48.250Z,42.73
2019-02-21T17:08:17.689Z,43.20
2019-02-21T17:10:47.529Z,40.40
2019-02-21T17:13:16.933Z,46.02
2019-02-21T17:15:46.437Z,41.55
2019-02-21T17:18:16.089Z,39.88
2019-02-21T17:20:45.607Z,42.10
2019-02-21T17:23:22.516Z,44.75
2019-02-21T17:25:46.527Z,49.80
2019-02-21T17:28:16.124Z,48.60
2019-02-21T17:30:45.648Z,47.88
2019-02-21T17:33:15.205Z,50.48
2019-02-21T17:35:44.658Z,47.65
2019-02-21T17:38:15.011Z,46.20
2019-02-21T17:40:44.708Z,48.08
2019-02-21T17:43:14.207Z,48.50
2019-02-21T17:45:43.740Z,46.77
2019-02-21T17:48:13.794Z,46.50
2019-02-21T17:50:43.152Z,47.98
2019-02-21T17:53:13.272Z,50.20
2019-02-21T17:55:42.761Z,48.68
2019-02-21T17:58:12.456Z,47.43
2019-02-21T18:00:41.938Z,50.50
2019-02-21T18:03:11.784Z,49.60
2019-02-21T18:05:41.352Z,50.28
2019-02-21T18:08:11.185Z,46.77
2019-02-21T18:10:40.662Z,51.13
2019-02-21T18:13:10.484Z,49.20
2019-02-21T18:15:40.021Z,51.80
2019-02-21T18:18:09.522Z,52.98
2019-02-21T18:20:39.635Z,63.38
2019-02-21T18:23:09.414Z,49.27
2019-02-21T18:25:42.688Z,49.70
2019-02-21T18:28:12.201Z,45.95
2019-02-21T18:30:42.344Z,49.37
2019-02-21T18:33:12.227Z,80.05
2019-02-21T18:35:41.791Z,77.92
2019-02-21T18:38:11.385Z,71.67
2019-02-21T18:40:40.893Z,67.45
2019-02-21T18:43:10.454Z,65.55
2019-02-21T18:45:40.157Z,79.77
2019-02-21T18:48:09.650Z,97.15
2019-02-21T18:50:39.128Z,96.90
2019-02-21T18:53:08.722Z,111.87
2019-02-21T18:55:38.293Z,115.03
2019-02-21T18:58:07.834Z,115.75
2019-02-21T19:00:37.481Z,105.40
2019-02-21T19:03:06.996Z,103.02
2019-02-21T19:05:37.140Z,107.47
2019-02-21T19:08:06.561Z,103.90
2019-02-21T19:10:36.516Z,98.00
2019-02-21T19:13:07.764Z,81.95
2019-02-21T19:15:37.825Z,78.85
2019-02-21T19:18:07.738Z,78.30
2019-02-21T19:20:37.462Z,58.92
2019-02-21T19:23:07.089Z,59.57
2019-02-21T19:25:36.637Z,56.88
2019-02-21T19:28:06.256Z,64.42
2019-02-21T19:30:39.751Z,505.15
2019-02-21T19:33:09.450Z,280.70
2019-02-21T19:35:39.247Z,362.02
2019-02-21T19:38:10.741Z,134.57
2019-02-21T19:40:40.143Z,62.73
2019-02-21T19:43:10.901Z,62.13
2019-02-21T19:45:40.454Z,77.73
2019-02-21T19:48:10.759Z,81.40
2019-02-21T19:50:40.493Z,76.25
2019-02-21T19:53:09.918Z,69.65
2019-02-21T19:55:39.460Z,49.90
2019-02-21T19:58:09.296Z,52.13
2019-02-21T20:00:38.809Z,51.25
2019-02-21T20:03:08.444Z,43.53
2019-02-21T20:05:37.970Z,63.70
2019-02-21T20:08:08.984Z,52.25
2019-02-21T20:10:40.068Z,72.67
2019-02-21T20:13:10.657Z,102.27
2019-02-21T20:15:40.642Z,69.03
2019-02-21T20:18:10.075Z,57.03
2019-02-21T20:20:39.805Z,53.10
2019-02-21T20:23:09.430Z,47.48
2019-02-21T20:25:38.990Z,43.55
2019-02-21T20:28:08.552Z,56.93
2019-02-21T20:30:37.988Z,48.65
2019-02-21T20:33:07.604Z,59.75
2019-02-21T20:35:37.136Z,63.60
2019-02-21T20:38:06.604Z,42.33
2019-02-21T20:40:36.060Z,56.68
2019-02-21T20:43:05.940Z,45.90
2019-02-21T20:45:35.858Z,31.15
2019-02-21T20:48:05.346Z,34.98
2019-02-21T20:50:34.822Z,40.85
2019-02-21T20:53:04.687Z,42.07
2019-02-21T20:55:43.039Z,42.88
2019-02-21T20:58:05.401Z,46.65
2019-02-21T21:00:35.331Z,50.12
2019-02-21T21:03:04.885Z,46.60
2019-02-21T21:05:34.589Z,51.92
2019-02-21T21:08:04.107Z,53.30
2019-02-21T21:10:33.624Z,49.00
2019-02-21T21:13:03.309Z,35.23
2019-02-21T21:15:32.853Z,29.82
2019-02-21T21:18:02.469Z,27.02
2019-02-21T21:20:31.987Z,33.53
2019-02-21T21:23:01.497Z,32.58
2019-02-21T21:25:31.947Z,24.63
2019-02-21T21:28:01.648Z,22.00
2019-02-21T21:30:31.215Z,22.93
2019-02-21T21:33:01.160Z,25.10
2019-02-21T21:35:30.701Z,28.30
2019-02-21T21:38:00.317Z,24.00
2019-02-21T21:40:29.864Z,23.42
2019-02-21T21:42:59.374Z,18.07
2019-02-21T21:45:29.028Z,26.43
2019-02-21T21:47:58.537Z,23.42
2019-02-21T21:50:28.191Z,22.98
2019-02-21T21:52:57.804Z,20.33
2019-02-21T21:55:27.520Z,23.55
2019-02-21T21:57:57.227Z,28.07
2019-02-21T22:00:26.673Z,21.37
2019-02-21T22:02:56.319Z,21.27
2019-02-21T22:05:26.067Z,19.50
2019-02-21T22:07:56.144Z,26.60
2019-02-21T22:10:26.152Z,22.20
2019-02-21T22:12:55.772Z,27.30
2019-02-21T22:15:25.635Z,22.52
2019-02-21T22:17:56.115Z,25.77
2019-02-21T22:20:25.937Z,29.75
2019-02-21T22:22:55.572Z,27.30
2019-02-21T22:25:25.456Z,24.70
2019-02-21T22:27:55.095Z,25.02
2019-02-21T22:30:24.885Z,25.55
2019-02-21T22:32:54.838Z,20.27
2019-02-21T22:35:24.451Z,21.07
2019-02-21T22:37:54.431Z,17.60
2019-02-21T22:40:24.433Z,22.45
2019-02-21T22:42:54.138Z,14.55
2019-02-21T22:45:24.121Z,12.90
2019-02-21T22:47:53.752Z,17.95
2019-02-21T22:50:23.419Z,13.35
2019-02-21T22:52:53.050Z,18.05
2019-02-21T22:55:22.956Z,10.68
2019-02-21T22:57:52.562Z,10.58
2019-02-21T23:00:59.604Z,10.93
2019-02-21T23:03:51.908Z,8.43
2019-02-21T23:06:47.758Z,7.15
2019-02-21T23:09:26.899Z,12.23
2019-02-21T23:11:51.080Z,12.23
2019-02-21T23:14:21.781Z,14.45
2019-02-21T23:16:51.394Z,37.65
2019-02-21T23:19:23.936Z,23.85
2019-02-21T23:21:52.952Z,18.35
2019-02-21T23:24:22.939Z,17.40
2019-02-21T23:26:52.598Z,15.40
2019-02-21T23:29:22.243Z,13.80
2019-02-21T23:31:52.233Z,16.48
2019-02-21T23:34:34.741Z,13.30
2019-02-21T23:37:04.681Z,13.90
2019-02-21T23:39:38.402Z,9.50
2019-02-21T23:42:05.805Z,11.78
2019-02-21T23:44:35.468Z,15.50
2019-02-21T23:47:05.323Z,12.03
2019-02-21T23:49:34.905Z,15.83
2019-02-21T23:52:04.722Z,15.88
2019-02-21T23:54:34.331Z,11.60
2019-02-21T23:57:04.236Z,14.10
2019-02-21T23:59:33.957Z,12.78
